Time;durP1;ratioP1;P1;durP2;ratioP2;P2;SDS_P1;SDS_P2;PMS_P1;PMS_P2;Temp;Humidity;BMP_temperature;BMP_pressure;BME280_temperature;BME280_humidity;BME280_pressure;Samples;Min_cycle;Max_cycle;Signal;HPM_P1;HPM_P2
2021/05/19 05:45:38;;;;;;;21.48;12.40;;;;;;;15.06;100.00;98786.34;1813112;78;23412;-73
2021/05/19 05:48:06;;;;;;;23.18;14.10;;;;;;;15.11;100.00;98785.95;1781402;80;21567;-73
2021/05/19 05:50:32;;;;;;;23.95;14.73;;;;;;;15.06;100.00;98781.73;1781775;80;21023;-72
2021/05/19 05:52:59;;;;;;;24.00;13.10;;;;;;;15.05;100.00;98780.59;1781664;80;21107;-76
2021/05/19 05:55:26;;;;;;;28.30;19.75;;;;;;;15.04;100.00;98779.77;1782537;80;21531;-77
2021/05/19 05:57:53;;;;;;;29.70;20.80;;;;;;;14.98;100.00;98789.69;1782040;80;21011;-74
2021/05/19 06:00:21;;;;;;;30.97;15.85;;;;;;;14.95;100.00;98788.78;1780062;80;21055;-76
2021/05/19 06:02:48;;;;;;;24.72;12.95;;;;;;;14.92;100.00;98795.22;1781613;80;21024;-74
2021/05/19 06:05:15;;;;;;;21.80;13.83;;;;;;;14.87;100.00;98812.23;1779795;80;21020;-71
2021/05/19 06:07:43;;;;;;;26.27;16.32;;;;;;;14.77;100.00;98807.34;1777584;80;21063;-72
2021/05/19 06:10:11;;;;;;;22.70;15.53;;;;;;;14.66;100.00;98801.31;1784906;80;21067;-69
2021/05/19 06:12:38;;;;;;;23.47;13.32;;;;;;;14.64;100.00;98804.77;1782516;80;21059;-72
2021/05/19 06:15:07;;;;;;;24.23;14.70;;;;;;;14.61;100.00;98809.33;1782288;80;21040;-74
2021/05/19 06:17:33;;;;;;;26.35;16.17;;;;;;;14.63;100.00;98800.94;1782597;80;21027;-73
2021/05/19 06:20:01;;;;;;;30.80;21.40;;;;;;;14.70;100.00;98798.97;1783601;80;21082;-75
2021/05/19 06:22:28;;;;;;;84.77;56.23;;;;;;;14.86;100.00;98801.06;1782568;80;21524;-74
2021/05/19 06:24:56;;;;;;;49.00;41.95;;;;;;;15.04;100.00;98805.63;1781873;80;21577;-75
2021/05/19 06:27:23;;;;;;;26.40;16.55;;;;;;;15.17;100.00;98803.25;1782417;80;21028;-76
2021/05/19 06:29:50;;;;;;;23.73;13.78;;;;;;;15.24;100.00;98802.62;1783615;79;21074;-71
2021/05/19 06:32:17;;;;;;;25.08;14.55;;;;;;;15.33;100.00;98801.25;1782305;79;21011;-75
2021/05/19 06:34:45;;;;;;;20.95;12.35;;;;;;;15.51;100.00;98797.63;1782210;80;21023;-73
2021/05/19 06:37:12;;;;;;;24.98;14.15;;;;;;;15.65;100.00;98790.07;1779042;80;21059;-74
2021/05/19 06:39:39;;;;;;;22.70;13.40;;;;;;;15.77;100.00;98788.73;1778091;80;21039;-72
2021/05/19 06:42:06;;;;;;;24.37;14.30;;;;;;;15.84;100.00;98789.45;1782953;80;21043;-71
2021/05/19 06:44:33;;;;;;;24.70;13.22;;;;;;;15.91;100.00;98789.34;1779227;80;21082;-75
2021/05/19 06:47:00;;;;;;;19.45;10.88;;;;;;;15.94;100.00;98770.62;1781955;80;21071;-71
2021/05/19 06:49:27;;;;;;;22.10;10.75;;;;;;;16.15;100.00;98772.45;1776151;80;21035;-73
2021/05/19 06:51:54;;;;;;;19.98;10.08;;;;;;;16.53;100.00;98760.71;1779348;80;21045;-72
2021/05/19 06:54:22;;;;;;;17.82;9.45;;;;;;;17.13;100.00;98744.44;1782095;80;21063;-73
2021/05/19 06:56:49;;;;;;;121.15;88.92;;;;;;;17.13;100.00;98744.44;1781870;80;21019;-75
2021/05/19 06:59:18;;;;;;;28.23;18.65;;;;;;;17.19;100.00;98750.27;1780492;80;21040;-79
2021/05/19 07:01:47;;;;;;;20.75;12.88;;;;;;;17.16;100.00;98743.41;1777368;80;21071;-71
2021/05/19 07:04:13;;;;;;;25.15;12.75;;;;;;;17.07;100.00;98736.69;1779150;80;21485;-74
2021/05/19 07:06:40;;;;;;;24.20;10.82;;;;;;;17.03;100.00;98746.42;1777964;80;21572;-73
2021/05/19 07:09:08;;;;;;;21.42;8.00;;;;;;;17.08;100.00;98745.16;1777749;80;21536;-71
2021/05/19 07:11:35;;;;;;;22.62;8.30;;;;;;;17.06;100.00;98750.04;1776798;80;20968;-73
2021/05/19 07:14:02;;;;;;;25.35;11.63;;;;;;;16.93;100.00;98761.24;1785436;79;21012;-74
2021/05/19 07:16:31;;;;;;;24.23;11.18;;;;;;;16.80;100.00;98756.88;1789096;79;21520;-73
2021/05/19 07:18:59;;;;;;;22.32;10.88;;;;;;;16.65;100.00;98762.88;1780387;79;21026;-73
2021/05/19 07:21:26;;;;;;;16.17;8.03;;;;;;;16.55;100.00;98764.84;1779991;80;21547;-72
2021/05/19 07:23:53;;;;;;;20.20;9.10;;;;;;;16.49;100.00;98763.09;1752961;80;21588;-74
2021/05/19 07:26:21;;;;;;;15.50;7.78;;;;;;;16.38;100.00;98761.20;1786208;80;21027;-74
2021/05/19 07:28:48;;;;;;;18.90;9.20;;;;;;;16.37;100.00;98758.20;1773750;80;21543;-74
2021/05/19 07:31:16;;;;;;;16.73;8.15;;;;;;;16.40;100.00;98755.81;1756841;81;21040;-73
2021/05/19 07:33:42;;;;;;;16.23;7.42;;;;;;;16.50;100.00;98751.94;1739544;82;21044;-73
2021/05/19 07:36:10;;;;;;;24.47;11.10;;;;;;;16.53;100.00;98736.97;1710522;83;21087;-73
2021/05/19 07:38:37;;;;;;;23.00;12.13;;;;;;;16.60;100.00;98739.03;1738742;82;21535;-74
2021/05/19 07:41:04;;;;;;;24.15;12.47;;;;;;;16.85;100.00;98734.63;1708700;82;20985;-74
2021/05/19 07:43:31;;;;;;;18.27;11.20;;;;;;;17.20;100.00;98729.54;1707694;84;21053;-74
2021/05/19 07:45:58;;;;;;;23.85;12.88;;;;;;;17.52;100.00;98718.05;1745262;81;21071;-72
2021/05/19 07:48:25;;;;;;;25.17;12.55;;;;;;;17.57;100.00;98707.20;1746561;82;21548;-72
2021/05/19 07:50:52;;;;;;;28.87;12.58;;;;;;;17.53;100.00;98709.30;1747099;81;21039;-75
2021/05/19 07:53:19;;;;;;;21.27;9.33;;;;;;;17.74;100.00;98700.88;1749061;81;21113;-77
2021/05/19 08:03:11;;;;;;;16.27;7.83;;;;;;;18.56;100.00;98698.73;1707311;84;22224;-75
2021/05/19 08:05:38;;;;;;;21.30;8.00;;;;;;;18.62;100.00;98695.50;1707215;84;21078;-74
2021/05/19 08:08:05;;;;;;;15.95;6.15;;;;;;;18.64;100.00;98703.46;1706741;84;21622;-71
2021/05/19 08:10:32;;;;;;;12.37;5.47;;;;;;;18.81;100.00;98691.06;1707408;84;21095;-73
2021/05/19 08:13:00;;;;;;;12.50;5.22;;;;;;;19.16;100.00;98692.80;1707342;84;21271;-74
2021/05/19 08:15:27;;;;;;;18.92;6.28;;;;;;;19.52;100.00;98684.87;1707357;84;21074;-76
2021/05/19 08:17:54;;;;;;;14.15;5.55;;;;;;;19.59;100.00;98673.69;1705630;84;21062;-74
2021/05/19 08:20:22;;;;;;;15.60;5.35;;;;;;;19.63;100.00;98663.83;1705194;84;21095;-75
2021/05/19 08:22:50;;;;;;;16.07;4.90;;;;;;;19.63;100.00;98672.61;1694725;84;21017;-79
2021/05/19 08:25:17;;;;;;;10.18;5.05;;;;;;;19.63;100.00;98672.05;1693183;83;21090;-77
2021/05/19 08:27:44;;;;;;;12.55;5.10;;;;;;;19.67;100.00;98665.50;1700517;84;21079;-79
2021/05/19 08:30:14;;;;;;;23.00;6.62;;;;;;;19.90;100.00;98664.30;1708929;84;21126;-78
2021/05/19 08:32:41;;;;;;;20.77;8.60;;;;;;;20.11;100.00;98662.48;1707515;84;21094;-74
2021/05/19 08:35:09;;;;;;;13.55;6.15;;;;;;;20.16;100.00;98658.40;1707536;84;21183;-77
2021/05/19 08:37:37;;;;;;;16.10;7.42;;;;;;;20.12;100.00;98650.44;1707164;84;21531;-77
2021/05/19 08:40:06;;;;;;;9.95;3.85;;;;;;;19.96;100.00;98650.91;1707475;84;21520;-75
2021/05/19 08:42:34;;;;;;;9.25;3.40;;;;;;;19.85;100.00;98645.09;1707581;84;21026;-74
2021/05/19 08:45:05;;;;;;;6.78;3.17;;;;;;;19.84;100.00;98649.73;1700845;84;21647;-75
2021/05/19 08:47:32;;;;;;;9.43;2.98;;;;;;;19.83;100.00;98646.73;1690687;85;21087;-77
2021/05/19 08:50:01;;;;;;;9.50;3.27;;;;;;;19.91;100.00;98651.69;1690452;85;21099;-75
2021/05/19 08:52:28;;;;;;;8.63;2.90;;;;;;;20.10;100.00;98649.88;1690539;85;21067;-77
2021/05/19 08:54:57;;;;;;;10.15;3.10;;;;;;;20.25;100.00;98643.62;1687493;85;21052;-80
2021/05/19 08:57:24;;;;;;;10.72;2.80;;;;;;;20.37;100.00;98643.40;1709010;81;21032;-81
2021/05/19 08:59:50;;;;;;;9.30;3.40;;;;;;;20.40;100.00;98651.92;1735235;82;21034;-79
2021/05/19 09:02:18;;;;;;;13.55;4.20;;;;;;;20.37;100.00;98649.70;1710809;84;21051;-79
2021/05/19 09:04:44;;;;;;;11.22;3.50;;;;;;;20.15;100.00;98639.45;1742192;82;21025;-77
2021/05/19 09:07:19;;;;;;;12.45;3.85;;;;;;;19.84;100.00;98653.03;1741763;82;21050;-76
2021/05/19 09:09:46;;;;;;;10.68;4.30;;;;;;;19.52;100.00;98650.60;1757902;82;21011;-79
2021/05/19 09:12:15;;;;;;;10.28;4.45;;;;;;;19.54;100.00;98639.38;1736598;81;21061;-78
2021/05/19 09:15:01;;;;;;;14.53;4.58;;;;;;;19.80;100.00;98639.02;1741727;82;21033;-79
2021/05/19 09:17:35;;;;;;;14.98;4.60;;;;;;;20.17;100.00;98634.52;1741547;82;21559;-79
2021/05/19 09:20:14;;;;;;;7.00;3.37;;;;;;;20.59;100.00;98633.56;1742786;82;21564;-80
2021/05/19 09:22:44;;;;;;;12.30;4.58;;;;;;;20.83;100.00;98620.19;1755818;80;21075;-76
2021/05/19 09:25:30;;;;;;;17.92;4.80;;;;;;;20.95;100.00;98618.56;1712521;84;21059;-80
2021/05/19 09:28:00;;;;;;;12.63;4.00;;;;;;;21.03;100.00;98631.73;1731071;82;21072;-78
2021/05/19 09:30:45;;;;;;;6.80;3.42;;;;;;;20.84;100.00;98624.56;1711571;83;21064;-78
2021/05/19 09:33:24;;;;;;;10.55;5.47;;;;;;;20.39;100.00;98620.06;1675184;84;21162;-75
2021/05/19 09:36:15;;;;;;;11.73;3.17;;;;;;;19.99;100.00;98628.44;1715760;82;21003;-79
2021/05/19 09:38:43;;;;;;;11.40;2.25;;;;;;;19.62;100.00;98655.86;1738600;82;21050;-73
2021/05/19 09:41:23;;;;;;;3.72;1.60;;;;;;;18.86;100.00;98678.83;1739644;82;21058;-74
2021/05/19 09:43:54;;;;;;;6.95;2.00;;;;;;;18.08;100.00;98680.33;1737777;82;21088;-72
2021/05/19 09:46:23;;;;;;;4.85;2.12;;;;;;;17.45;100.00;98681.86;1738483;82;21221;-73
2021/05/19 09:49:14;;;;;;;3.65;2.12;;;;;;;17.00;100.00;98702.70;1746250;82;21046;-73
2021/05/19 09:51:50;;;;;;;3.37;2.33;;;;;;;16.65;100.00;98701.47;1752451;81;21076;-74
2021/05/19 09:54:39;;;;;;;4.20;1.85;;;;;;;16.30;100.00;98711.41;1702224;83;21059;-74
2021/05/19 09:57:15;;;;;;;4.85;1.70;;;;;;;16.07;100.00;98712.83;1693016;84;21116;-73
2021/05/19 09:59:45;;;;;;;2.55;2.08;;;;;;;15.91;100.00;98711.11;1670618;85;21080;-73
2021/05/19 10:02:12;;;;;;;3.58;1.17;;;;;;;15.91;100.00;98708.39;1684775;85;21087;-73
2021/05/19 10:04:44;;;;;;;3.58;1.00;;;;;;;15.94;100.00;98707.09;1655226;87;21103;-74
2021/05/19 10:07:14;;;;;;;11.47;5.83;;;;;;;16.18;100.00;98705.14;1688124;85;21229;-76
2021/05/19 10:09:41;;;;;;;3.72;1.65;;;;;;;16.64;100.00;98707.47;1695626;84;21285;-73
2021/05/19 10:12:10;;;;;;;5.65;1.00;;;;;;;17.22;100.00;98691.88;1663517;86;21075;-74
2021/05/19 10:14:37;;;;;;;3.45;0.90;;;;;;;17.65;100.00;98688.17;1667428;86;21068;-73
2021/05/19 10:17:08;;;;;;;4.37;1.42;;;;;;;17.78;100.00;98672.80;1667429;86;21063;-72
2021/05/19 10:19:46;;;;;;;4.08;1.10;;;;;;;17.98;100.00;98669.55;1666977;86;21119;-73
2021/05/19 10:22:15;;;;;;;2.55;0.93;;;;;;;18.23;100.00;98662.75;1669460;86;21111;-73
2021/05/19 10:25:03;;;;;;;2.72;0.88;;;;;;;18.50;100.00;98664.70;1669348;86;21633;-75
2021/05/19 10:27:48;;;;;;;2.12;0.60;;;;;;;18.69;100.00;98660.53;1670077;84;21127;-75
2021/05/19 10:30:43;;;;;;;1.10;0.80;;;;;;;18.83;100.00;98666.47;1669933;86;21097;-75
2021/05/19 10:33:39;;;;;;;2.77;2.10;;;;;;;18.99;100.00;98650.19;1633289;87;21106;-77
2021/05/19 10:36:34;;;;;;;4.20;1.60;;;;;;;19.34;100.00;98655.14;1613538;88;21122;-76
2021/05/19 10:39:18;;;;;;;10.32;2.22;;;;;;;19.77;100.00;98660.12;1602263;87;21070;-76
2021/05/19 10:41:52;;;;;;;2.22;1.20;;;;;;;20.17;100.00;98650.45;1615030;87;21079;-75
2021/05/19 10:44:23;;;;;;;2.95;1.40;;;;;;;20.40;100.00;98635.45;1616056;89;21094;-74
2021/05/19 10:50:02;;;;;;;3.17;1.07;;;;;;;20.24;100.00;98637.87;1602349;87;21094;-77
2021/05/19 10:58:01;;;;;;;7.92;1.82;;;;;;;19.85;100.00;98630.83;1568602;90;21067;-77
2021/05/19 11:00:29;;;;;;;5.10;1.42;;;;;;;20.07;100.00;98642.99;1574214;90;21108;-76
2021/05/19 11:03:05;;;;;;;3.85;2.60;;;;;;;20.04;100.00;98637.22;1566658;91;21096;-78
2021/05/19 11:05:56;;;;;;;4.67;1.45;;;;;;;19.68;100.00;98634.26;1557457;91;21110;-76
2021/05/19 11:08:28;;;;;;;6.00;1.50;;;;;;;19.44;100.00;98639.30;1552051;91;21659;-74
2021/05/19 11:11:17;;;;;;;5.15;1.35;;;;;;;19.08;100.00;98647.25;1566158;91;21097;-79
2021/05/19 11:19:34;;;;;;;7.45;1.92;;;;;;;18.83;100.00;98649.22;1491751;96;21088;-75
2021/05/19 11:22:09;;;;;;;5.12;1.20;;;;;;;18.79;100.00;98644.77;1490840;96;21172;-77
2021/05/19 11:24:59;;;;;;;13.72;2.47;;;;;;;19.14;100.00;98636.60;1451183;98;21075;-75
2021/05/19 11:27:28;;;;;;;5.10;1.70;;;;;;;19.68;100.00;98646.59;1445038;97;21170;-75
2021/05/19 11:29:56;;;;;;;2.70;1.40;;;;;;;19.86;100.00;98645.36;1457344;97;21152;-75
2021/05/19 11:32:25;;;;;;;1.57;1.47;;;;;;;19.77;100.00;98642.84;1459483;97;21194;-75
2021/05/19 11:34:54;;;;;;;4.65;1.50;;;;;;;19.62;100.00;98647.12;1456585;96;21362;-77
2021/05/19 11:37:23;;;;;;;5.10;1.62;;;;;;;19.32;100.00;98651.84;1542760;92;21108;-76
2021/05/19 11:39:50;;;;;;;5.05;1.70;;;;;;;19.02;100.00;98649.12;1548466;93;21198;-74
2021/05/19 11:42:28;;;;;;;2.40;0.93;;;;;;;18.81;100.00;98650.81;1517928;94;21613;-72
2021/05/19 11:45:05;;;;;;;6.17;1.45;;;;;;;18.60;100.00;98652.50;1508108;94;21146;-74
2021/05/19 11:47:39;;;;;;;6.12;1.87;;;;;;;18.38;100.00;98642.98;1508818;95;21056;-73
2021/05/19 11:50:17;;;;;;;6.05;1.85;;;;;;;18.17;100.00;98655.03;1510947;93;21133;-75
2021/05/19 11:53:12;;;;;;;4.50;1.40;;;;;;;18.03;100.00;98661.96;1531530;93;21088;-71
2021/05/19 11:55:45;;;;;;;3.15;2.25;;;;;;;17.72;100.00;98667.51;1522891;94;21315;-71
2021/05/19 11:58:27;;;;;;;1.45;1.35;;;;;;;17.21;100.00;98686.14;1488980;93;21111;-71
2021/05/19 12:01:01;;;;;;;2.42;1.80;;;;;;;16.84;100.00;98689.86;1487104;96;21608;-71
2021/05/19 12:03:32;;;;;;;5.67;2.47;;;;;;;16.61;100.00;98694.82;1501953;95;21101;-72
2021/05/19 12:06:03;;;;;;;5.33;2.50;;;;;;;16.41;100.00;98691.98;1488662;96;21111;-72
2021/05/19 12:08:38;;;;;;;2.85;1.62;;;;;;;16.28;100.00;98703.19;1490651;96;21181;-73
2021/05/19 12:11:19;;;;;;;4.92;3.40;;;;;;;16.18;100.00;98717.96;1490493;96;21115;-73
2021/05/19 12:16:32;;;;;;;4.85;3.37;;;;;;;15.86;100.00;98721.08;1437522;100;21187;-70
2021/05/19 12:19:21;;;;;;;2.90;2.02;;;;;;;15.82;100.00;98733.53;1417185;101;21217;-72
2021/05/19 12:21:51;;;;;;;7.30;3.10;;;;;;;15.77;100.00;98725.23;1420472;99;21112;-70
2021/05/19 12:24:20;;;;;;;2.98;1.67;;;;;;;15.82;100.00;98716.64;1424765;99;21145;-70
2021/05/19 12:26:49;;;;;;;3.75;2.30;;;;;;;15.91;100.00;98713.84;1424730;101;21170;-70
2021/05/19 12:29:46;;;;;;;3.17;1.47;;;;;;;16.07;100.00;98714.19;1410853;101;21229;-72
2021/05/19 12:32:28;;;;;;;3.77;1.80;;;;;;;16.31;100.00;98709.53;1427810;99;21302;-72
2021/05/19 12:35:12;;;;;;;5.12;2.95;;;;;;;16.68;100.00;98712.73;1445449;99;21191;-68
2021/05/19 12:37:46;;;;;;;5.60;3.72;;;;;;;17.16;100.00;98704.34;1444138;99;21153;-70
2021/05/19 12:40:21;;;;;;;2.67;2.15;;;;;;;17.48;100.00;98692.86;1444240;99;21618;-70
2021/05/19 12:42:53;;;;;;;6.87;4.25;;;;;;;17.63;100.00;98687.60;1444382;99;21137;-69
2021/05/19 12:45:34;;;;;;;10.90;6.53;;;;;;;17.74;100.00;98679.02;1401949;101;21278;-71
2021/05/19 12:48:11;;;;;;;2.12;1.92;;;;;;;17.71;100.00;98674.89;1382209;104;21184;-70
2021/05/19 12:50:48;;;;;;;4.50;2.10;;;;;;;17.61;100.00;98663.80;1401952;102;21291;-71
2021/05/19 12:53:41;;;;;;;3.80;2.47;;;;;;;17.46;100.00;98667.95;1389804;102;21245;-70
2021/05/19 12:56:25;;;;;;;2.25;2.00;;;;;;;17.34;100.00;98660.39;1431825;100;21154;-70
2021/05/19 12:59:01;;;;;;;2.83;1.92;;;;;;;17.17;100.00;98649.45;1438529;100;21174;-70
2021/05/19 13:01:29;;;;;;;3.20;1.42;;;;;;;17.05;100.00;98655.53;1433987;100;21750;-71
2021/05/19 13:03:58;;;;;;;5.47;1.70;;;;;;;17.01;100.00;98653.00;1415631;101;21187;-70
2021/05/19 13:06:26;;;;;;;2.17;1.60;;;;;;;17.07;100.00;98646.58;1414770;101;21127;-70
2021/05/19 13:09:00;;;;;;;1.82;1.60;;;;;;;17.19;100.00;98641.02;1414617;101;21139;-72
2021/05/19 13:11:29;;;;;;;1.60;1.40;;;;;;;17.36;100.00;98641.02;1416153;100;21573;-73
2021/05/19 13:13:57;;;;;;;3.77;2.17;;;;;;;17.53;100.00;98635.00;1449890;98;21609;-76
2021/05/19 13:16:30;;;;;;;50.00;38.60;;;;;;;17.86;100.00;98640.12;1467816;97;21155;-76
2021/05/19 13:24:16;;;;;;;5.17;1.30;;;;;;;18.45;100.00;98623.59;1380540;102;21218;-71
2021/05/19 13:26:44;;;;;;;3.05;2.30;;;;;;;18.66;100.00;98620.53;1409842;102;21152;-72
2021/05/19 13:29:16;;;;;;;5.92;3.83;;;;;;;18.68;100.00;98611.52;1409328;100;21229;-73
2021/05/19 13:31:58;;;;;;;1.98;1.72;;;;;;;18.60;100.00;98597.20;1422634;100;21686;-72
2021/05/19 13:36:49;;;;;;;2.58;1.85;;;;;;;18.31;100.00;98602.64;1470437;97;21182;-72
2021/05/19 13:39:20;;;;;;;3.75;1.85;;;;;;;18.37;100.00;98603.00;1469738;98;21159;-74
2021/05/19 13:41:54;;;;;;;4.40;2.20;;;;;;;18.42;100.00;98603.61;1470298;97;21119;-73
2021/05/19 13:44:22;;;;;;;1.67;1.57;;;;;;;18.37;100.00;98604.36;1471020;97;21667;-71
2021/05/19 13:46:52;;;;;;;3.58;2.15;;;;;;;18.26;100.00;98601.24;1459279;97;21190;-71
2021/05/19 13:49:28;;;;;;;5.75;2.08;;;;;;;18.10;100.00;98609.81;1502827;94;21131;-73
2021/05/19 13:52:04;;;;;;;3.87;2.40;;;;;;;17.99;100.00;98606.13;1503027;95;21110;-73
2021/05/19 13:54:41;;;;;;;5.42;1.92;;;;;;;17.95;100.00;98620.00;1451536;98;21606;-72
2021/05/19 13:57:07;;;;;;;1.70;1.60;;;;;;;17.93;100.00;98624.91;1401753;102;21135;-74
2021/05/19 13:59:34;;;;;;;6.95;3.72;;;;;;;17.88;100.00;98624.28;1401976;102;21219;-72
2021/05/19 14:02:01;;;;;;;9.43;6.30;;;;;;;17.93;100.00;98635.30;1401928;102;21798;-72
2021/05/19 14:04:29;;;;;;;4.62;2.75;;;;;;;17.99;100.00;98631.56;1401945;101;21195;-73
2021/05/19 14:06:56;;;;;;;3.98;3.30;;;;;;;17.95;100.00;98627.66;1402037;102;21122;-72
2021/05/19 14:09:23;;;;;;;11.90;8.60;;;;;;;17.79;100.00;98616.21;1401935;102;21615;-73
2021/05/19 14:12:05;;;;;;;5.70;4.15;;;;;;;17.62;100.00;98608.07;1402039;102;21182;-72
2021/05/19 14:17:16;;;;;;;8.43;3.92;;;;;;;17.63;100.00;98611.08;1470376;98;21128;-75
2021/05/19 14:27:41;;;;;;;6.20;3.85;;;;;;;17.60;100.00;98619.77;1538647;93;21163;-72
2021/05/19 14:30:15;;;;;;;8.83;4.85;;;;;;;17.41;100.00;98617.33;1521482;93;21123;-72
2021/05/19 14:32:42;;;;;;;14.85;5.45;;;;;;;17.31;100.00;98625.36;1507437;95;21172;-72
2021/05/19 14:35:15;;;;;;;9.48;4.08;;;;;;;17.26;100.00;98623.40;1507871;95;21136;-73
2021/05/19 14:59:28;;;;;;;3.80;3.12;;;;;;;17.43;100.00;98637.58;1626348;88;21612;-70
2021/05/19 15:01:49;;;;;;;8.30;3.22;;;;;;;17.24;100.00;98640.55;1622743;88;21083;-71
2021/05/19 15:04:16;;;;;;;5.22;2.50;;;;;;;17.10;100.00;98646.60;1626152;88;21176;-71
2021/05/19 15:06:45;;;;;;;8.13;5.20;;;;;;;16.72;100.00;98657.66;1626091;88;21056;-72
2021/05/19 15:09:12;;;;;;;3.77;2.45;;;;;;;16.72;100.00;98657.66;1626045;88;21214;-73
2021/05/19 15:11:40;;;;;;;11.15;5.72;;;;;;;16.46;100.00;98667.53;1626177;88;21178;-72
2021/05/19 15:14:08;;;;;;;7.12;4.22;;;;;;;16.21;100.00;98665.13;1625989;88;21668;-71
2021/05/19 15:16:36;;;;;;;6.17;3.77;;;;;;;15.89;100.00;98671.00;1625947;88;21151;-72
2021/05/19 15:19:04;;;;;;;7.25;3.20;;;;;;;15.89;100.00;98671.00;1604837;88;21161;-71
2021/05/19 15:21:31;;;;;;;4.03;2.70;;;;;;;15.85;100.00;98671.74;1640280;84;21686;-71
2021/05/19 15:23:58;;;;;;;5.35;2.85;;;;;;;15.82;100.00;98673.03;1715444;84;21216;-71
2021/05/19 15:26:25;;;;;;;5.08;3.00;;;;;;;15.72;100.00;98674.13;1715355;84;21035;-72
2021/05/19 15:28:52;;;;;;;4.83;2.47;;;;;;;15.61;100.00;98683.14;1715370;84;21133;-72
2021/05/19 15:31:18;;;;;;;5.42;2.80;;;;;;;15.47;100.00;98686.09;1715542;84;21031;-73
2021/05/19 15:33:45;;;;;;;4.08;2.60;;;;;;;15.47;100.00;98686.09;1715333;84;21603;-72
2021/05/19 15:36:13;;;;;;;6.00;3.30;;;;;;;15.43;100.00;98701.25;1750302;81;21010;-72
2021/05/19 15:38:42;;;;;;;3.58;3.00;;;;;;;15.43;100.00;98701.25;1775507;81;21074;-72
2021/05/19 15:41:08;;;;;;;6.50;4.70;;;;;;;15.43;100.00;98711.33;1775783;81;21015;-79
2021/05/19 15:43:35;;;;;;;5.85;2.80;;;;;;;15.44;100.00;98711.09;1775753;81;21034;-77
2021/05/19 15:46:03;;;;;;;2.87;2.47;;;;;;;15.43;100.00;98710.78;1775319;81;21003;-79
2021/05/19 15:48:31;;;;;;;4.40;3.25;;;;;;;15.42;100.00;98707.75;1764885;81;21055;-72
2021/05/19 15:50:58;;;;;;;9.23;4.90;;;;;;;15.40;100.00;98709.06;1765216;81;21071;-72
2021/05/19 15:53:25;;;;;;;10.58;5.05;;;;;;;15.38;100.00;98708.75;1734412;81;21016;-71
2021/05/19 15:55:52;;;;;;;12.95;6.90;;;;;;;15.38;100.00;98718.83;1735924;83;21579;-72
2021/05/19 15:58:19;;;;;;;14.43;7.22;;;;;;;15.38;100.00;98722.91;1736906;83;21062;-73
2021/05/19 16:00:50;;;;;;;17.70;10.63;;;;;;;15.36;100.00;98729.13;1736263;83;21075;-72
2021/05/19 16:03:18;;;;;;;15.55;8.65;;;;;;;15.36;100.00;98729.13;1736810;83;21078;-72
2021/05/19 16:05:45;;;;;;;8.28;4.58;;;;;;;15.34;100.00;98734.81;1736738;83;21042;-71
2021/05/19 16:08:12;;;;;;;7.72;4.83;;;;;;;15.32;100.00;98736.94;1736758;83;21071;-72
2021/05/19 16:10:40;;;;;;;5.25;3.08;;;;;;;15.30;100.00;98740.44;1736852;81;21059;-71
2021/05/19 16:13:08;;;;;;;9.43;6.08;;;;;;;15.30;100.00;98747.24;1736618;82;21042;-72
2021/05/19 16:15:35;;;;;;;5.75;4.30;;;;;;;15.30;100.00;98757.31;1736612;82;21043;-72
2021/05/19 16:18:04;;;;;;;9.28;4.22;;;;;;;15.31;100.00;98772.57;1736585;83;21579;-72
2021/05/19 16:20:30;;;;;;;12.70;5.20;;;;;;;15.29;100.00;98763.27;1736814;83;21051;-72
2021/05/19 16:22:58;;;;;;;6.15;3.42;;;;;;;15.29;100.00;98770.62;1736849;83;21058;-72
2021/05/19 16:25:25;;;;;;;5.42;3.15;;;;;;;15.29;100.00;98770.62;1736816;83;21031;-71
2021/05/19 16:27:54;;;;;;;4.12;2.60;;;;;;;15.29;100.00;98771.98;1736712;81;21091;-72
2021/05/19 16:31:08;;;;;;;5.62;2.98;;;;;;;15.29;100.00;98778.79;1736951;82;21106;-71
2021/05/19 16:34:27;;;;;;;9.60;5.10;;;;;;;15.25;100.00;98781.14;1736814;83;20995;-70
2021/05/19 16:37:01;;;;;;;5.72;2.77;;;;;;;15.21;100.00;98785.91;1737009;82;21520;-69
2021/05/19 16:39:38;;;;;;;7.03;3.20;;;;;;;15.11;100.00;98777.78;1736833;81;21584;-68
2021/05/19 16:42:08;;;;;;;9.08;3.50;;;;;;;15.03;100.00;98775.38;1736899;83;21031;-68
2021/05/19 16:44:40;;;;;;;7.90;3.12;;;;;;;14.96;100.00;98777.36;1736985;83;21540;-69
2021/05/19 16:47:07;;;;;;;6.42;3.45;;;;;;;14.93;100.00;98786.01;1740553;82;21115;-70
2021/05/19 16:49:35;;;;;;;6.83;3.55;;;;;;;14.93;100.00;98788.73;1746819;82;21067;-68
2021/05/19 16:52:06;;;;;;;5.47;3.22;;;;;;;14.91;100.00;98789.47;1756044;81;21545;-70
2021/05/19 16:54:39;;;;;;;4.70;3.30;;;;;;;14.89;100.00;98801.11;1766159;81;21511;-70
2021/05/19 16:57:08;;;;;;;9.50;5.03;;;;;;;14.87;100.00;98795.90;1724002;83;21074;-69
2021/05/19 16:59:35;;;;;;;5.12;3.10;;;;;;;14.87;100.00;98808.14;1723885;83;21023;-69
2021/05/19 17:07:16;;;;;;;7.25;3.55;;;;;;;14.78;100.00;98811.73;1723772;83;21492;-70
2021/05/19 17:09:45;;;;;;;9.85;3.92;;;;;;;14.74;100.00;98809.69;1723540;83;21079;-70
2021/05/19 17:12:13;;;;;;;10.10;4.00;;;;;;;14.71;100.00;98810.14;1723954;83;20978;-69
2021/05/19 17:14:40;;;;;;;8.15;3.27;;;;;;;14.68;100.00;98804.63;1723882;83;21081;-71
2021/05/19 17:17:07;;;;;;;5.40;2.92;;;;;;;14.63;100.00;98799.05;1723855;83;21054;-70
2021/05/19 17:19:36;;;;;;;5.83;3.12;;;;;;;14.59;100.00;98801.92;1723939;83;21234;-71
2021/05/19 17:22:03;;;;;;;3.25;2.50;;;;;;;14.53;100.00;98790.02;1723942;83;20991;-70
2021/05/19 17:24:30;;;;;;;4.35;2.67;;;;;;;14.49;100.00;98793.43;1723897;83;21098;-70
2021/05/19 17:26:57;;;;;;;6.62;2.95;;;;;;;14.45;100.00;98802.58;1724157;83;21046;-70
2021/05/19 17:29:24;;;;;;;5.30;2.87;;;;;;;14.42;100.00;98799.76;1723773;83;21057;-70
2021/05/19 17:31:52;;;;;;;7.20;3.12;;;;;;;14.39;100.00;98798.84;1723924;83;21043;-69
2021/05/19 17:34:19;;;;;;;6.65;3.67;;;;;;;14.37;100.00;98798.78;1723908;83;21151;-72
2021/05/19 17:36:50;;;;;;;6.03;2.92;;;;;;;14.32;100.00;98799.45;1699678;83;21570;-71
2021/05/19 17:39:16;;;;;;;5.37;2.83;;;;;;;14.28;100.00;98804.22;1720547;83;21046;-71
2021/05/19 17:41:43;;;;;;;4.95;3.10;;;;;;;14.25;100.00;98823.16;1723927;83;21042;-71
2021/05/19 17:44:10;;;;;;;5.50;3.10;;;;;;;14.20;100.00;98828.44;1723965;83;21022;-70
2021/05/19 17:46:39;;;;;;;10.58;3.30;;;;;;;14.14;100.00;98830.70;1723517;83;21114;-71
2021/05/19 17:49:08;;;;;;;4.22;3.10;;;;;;;14.08;100.00;98836.52;1723477;83;21079;-70
2021/05/19 17:51:42;;;;;;;4.87;3.12;;;;;;;14.00;100.00;98840.86;1724303;83;21520;-69
2021/05/19 17:54:09;;;;;;;7.30;3.80;;;;;;;13.94;100.00;98838.52;1742983;82;21059;-70
2021/05/19 17:56:37;;;;;;;7.25;3.85;;;;;;;13.89;100.00;98845.67;1695549;85;21592;-71
2021/05/19 17:59:04;;;;;;;6.50;3.65;;;;;;;13.84;100.00;98846.33;1694219;85;21588;-70
2021/05/19 18:01:35;;;;;;;7.17;4.55;;;;;;;13.81;100.00;98850.83;1694298;85;21051;-71
2021/05/19 18:04:01;;;;;;;10.10;4.62;;;;;;;13.75;100.00;98847.66;1694364;85;21181;-70
2021/05/19 18:06:31;;;;;;;7.62;4.30;;;;;;;13.74;100.00;98859.06;1694515;85;21052;-71
2021/05/19 18:08:58;;;;;;;5.33;3.58;;;;;;;13.72;100.00;98863.03;1694555;85;21119;-71
2021/05/19 18:11:26;;;;;;;8.10;3.90;;;;;;;13.68;100.00;98866.18;1694458;85;21044;-70
2021/05/19 18:13:54;;;;;;;7.87;4.42;;;;;;;13.66;100.00;98868.29;1694436;85;21075;-70
2021/05/19 18:16:21;;;;;;;9.95;5.50;;;;;;;13.64;100.00;98869.04;1694297;85;21605;-69
2021/05/19 18:18:51;;;;;;;10.58;5.22;;;;;;;13.62;100.00;98867.61;1693975;85;21067;-69
2021/05/19 18:21:19;;;;;;;8.70;5.00;;;;;;;13.59;100.00;98874.83;1694456;85;21087;-69
2021/05/19 18:23:46;;;;;;;6.75;4.30;;;;;;;13.56;100.00;98878.80;1694543;85;21072;-70
2021/05/19 18:26:13;;;;;;;11.57;6.37;;;;;;;13.54;100.00;98881.44;1694557;85;21072;-69
2021/05/19 18:28:42;;;;;;;17.42;8.05;;;;;;;13.53;100.00;98881.97;1694514;85;21123;-70
2021/05/19 18:36:05;;;;;;;7.60;3.55;;;;;;;13.45;100.00;98893.91;1666549;86;21565;-70